Time;durP1;ratioP1;P1;durP2;ratioP2;P2;SDS_P1;SDS_P2;PMS_P1;PMS_P2;Temp;Humidity;BMP_temperature;BMP_pressure;BME280_temperature;BME280_humidity;BME280_pressure;Samples;Min_cycle;Max_cycle;Signal;HPM_P1;HPM_P2
2023/05/18 00:07:55;;;;;;;33.15;13.60;;;;;;;;;;10236035;28;20055;-90
2023/05/18 00:12:56;;;;;;;34.50;12.00;;;;;;;;;;10224281;28;20396;-90
2023/05/18 00:18:00;;;;;;;35.97;11.90;;;;;;;;;;10218960;28;20407;-90
2023/05/18 00:23:01;;;;;;;24.77;11.23;;;;;;;;;;10224598;28;20035;-89
2023/05/18 00:28:03;;;;;;;29.17;12.10;;;;;;;;;;10223714;28;20567;-89
2023/05/18 00:33:04;;;;;;;34.23;10.83;;;;;;;;;;10219529;28;20054;-89
2023/05/18 00:38:06;;;;;;;32.30;12.93;;;;;;;;;;10222982;28;20031;-90
2023/05/18 00:43:08;;;;;;;25.50;11.33;;;;;;;;;;10241974;28;20502;-91
2023/05/18 00:48:09;;;;;;;23.80;9.90;;;;;;;;;;10212936;28;20089;-91
2023/05/18 00:53:10;;;;;;;31.17;10.97;;;;;;;;;;10223410;28;20118;-89
2023/05/18 00:58:11;;;;;;;29.57;9.63;;;;;;;;;;10223636;28;20368;-90
2023/05/18 01:03:14;;;;;;;31.40;11.33;;;;;;;;;;10217332;28;20063;-89
2023/05/18 01:08:18;;;;;;;24.70;9.07;;;;;;;;;;10227620;28;20137;-90
2023/05/18 01:13:42;;;;;;;28.10;10.07;;;;;;;;;;10224969;28;20059;-88
2023/05/18 01:18:57;;;;;;;29.33;11.20;;;;;;;;;;10235464;28;20453;-90
2023/05/18 01:24:20;;;;;;;19.35;9.02;;;;;;;;;;10223431;28;20374;-89
2023/05/18 01:29:23;;;;;;;24.20;9.43;;;;;;;;;;10220200;28;20046;-90
2023/05/18 01:34:24;;;;;;;23.63;9.80;;;;;;;;;;10222585;28;20062;-90
2023/05/18 01:39:26;;;;;;;24.67;10.63;;;;;;;;;;10243505;28;20081;-88
2023/05/18 01:44:32;;;;;;;18.40;8.10;;;;;;;;;;10244061;28;20046;-89
2023/05/18 01:49:53;;;;;;;28.25;8.95;;;;;;;;;;10226694;28;20043;-90
2023/05/18 01:54:57;;;;;;;24.63;9.50;;;;;;;;;;10247303;28;20665;-90
2023/05/18 02:00:10;;;;;;;21.13;7.63;;;;;;;;;;10229012;28;20035;-90
2023/05/18 02:05:14;;;;;;;18.70;7.73;;;;;;;;;;10218643;28;20084;-89
2023/05/18 02:10:15;;;;;;;30.00;9.20;;;;;;;;;;10225181;28;20067;-89
2023/05/18 02:15:22;;;;;;;24.50;9.80;;;;;;;;;;10228470;28;20042;-87
2023/05/18 02:20:24;;;;;;;27.73;9.00;;;;;;;;;;10241370;28;20495;-87
2023/05/18 02:25:28;;;;;;;29.50;9.47;;;;;;;;;;10227888;28;20031;-88
2023/05/18 02:30:32;;;;;;;22.83;7.67;;;;;;;;;;10226968;28;20055;-89
2023/05/18 02:35:33;;;;;;;22.73;8.47;;;;;;;;;;10257701;28;20035;-91
2023/05/18 02:40:42;;;;;;;27.27;9.57;;;;;;;;;;10245037;28;20783;-88
2023/05/18 02:45:43;;;;;;;21.20;7.60;;;;;;;;;;10222092;28;20047;-90
2023/05/18 02:50:46;;;;;;;20.50;8.30;;;;;;;;;;10227408;28;20047;-86
2023/05/18 02:55:47;;;;;;;19.83;8.60;;;;;;;;;;10245301;28;20273;-89
2023/05/18 03:00:59;;;;;;;23.00;6.77;;;;;;;;;;10217769;28;20027;-89
2023/05/18 03:06:03;;;;;;;17.97;7.40;;;;;;;;;;10237243;28;20054;-89
2023/05/18 03:11:04;;;;;;;17.50;6.73;;;;;;;;;;10226549;28;20042;-87
2023/05/18 03:16:05;;;;;;;32.17;8.40;;;;;;;;;;10231023;28;20042;-89
2023/05/18 03:21:06;;;;;;;16.93;6.50;;;;;;;;;;10222373;28;20067;-89
2023/05/18 03:26:10;;;;;;;23.00;7.57;;;;;;;;;;10227188;28;20094;-90
2023/05/18 03:31:11;;;;;;;20.83;7.97;;;;;;;;;;10223879;28;20043;-89
2023/05/18 03:36:12;;;;;;;18.43;7.10;;;;;;;;;;10217074;28;20047;-90
2023/05/18 03:41:16;;;;;;;19.73;6.73;;;;;;;;;;10249137;28;20035;-89
2023/05/18 03:46:17;;;;;;;18.07;6.57;;;;;;;;;;10225018;28;20090;-89
2023/05/18 03:51:18;;;;;;;22.40;7.73;;;;;;;;;;10225541;28;20035;-89
2023/05/18 03:56:22;;;;;;;18.10;6.53;;;;;;;;;;10224487;28;20043;-90
2023/05/18 04:01:29;;;;;;;19.20;6.83;;;;;;;;;;10228809;28;20737;-89
2023/05/18 04:06:34;;;;;;;23.57;7.10;;;;;;;;;;10218802;28;20114;-91
2023/05/18 04:11:54;;;;;;;17.77;7.10;;;;;;;;;;10232146;28;20050;-90
2023/05/18 04:16:57;;;;;;;23.50;6.23;;;;;;;;;;10225577;28;20126;-90
2023/05/18 04:21:59;;;;;;;19.37;6.77;;;;;;;;;;10226662;28;20114;-91
2023/05/18 04:27:03;;;;;;;16.80;7.43;;;;;;;;;;10259402;28;20139;-91
2023/05/18 04:32:09;;;;;;;15.50;7.07;;;;;;;;;;10242195;28;20067;-89
2023/05/18 04:37:11;;;;;;;18.23;6.53;;;;;;;;;;10256086;28;20034;-89
2023/05/18 04:42:26;;;;;;;24.30;7.23;;;;;;;;;;10224914;28;20086;-91
2023/05/18 04:47:33;;;;;;;21.80;7.90;;;;;;;;;;10224589;28;20036;-89
2023/05/18 04:52:40;;;;;;;27.57;9.60;;;;;;;;;;10225100;28;20074;-90
2023/05/18 04:57:43;;;;;;;18.83;9.97;;;;;;;;;;10224482;28;20035;-89
2023/05/18 05:02:46;;;;;;;26.37;9.43;;;;;;;;;;10234517;28;20031;-90
2023/05/18 05:07:57;;;;;;;21.13;7.90;;;;;;;;;;10230804;28;20069;-89
2023/05/18 05:12:58;;;;;;;25.80;8.90;;;;;;;;;;10236587;28;20050;-87
2023/05/18 05:18:01;;;;;;;26.00;8.37;;;;;;;;;;10241687;28;20031;-88
2023/05/18 05:23:03;;;;;;;24.87;9.40;;;;;;;;;;10232329;28;20028;-90
2023/05/18 05:28:12;;;;;;;25.83;9.40;;;;;;;;;;10229161;28;20039;-88
2023/05/18 05:33:17;;;;;;;27.93;9.60;;;;;;;;;;10258525;28;20126;-90
2023/05/18 05:38:18;;;;;;;27.42;8.50;;;;;;;;;;10247570;28;20050;-89
2023/05/18 05:43:19;;;;;;;22.87;9.17;;;;;;;;;;10244510;28;20102;-87
2023/05/18 05:48:21;;;;;;;23.63;8.90;;;;;;;;;;10239542;28;20494;-91
2023/05/18 05:53:22;;;;;;;24.37;9.57;;;;;;;;;;10232727;28;20034;-89
2023/05/18 05:58:24;;;;;;;19.10;7.63;;;;;;;;;;10244711;28;20035;-88
2023/05/18 06:03:25;;;;;;;23.27;8.10;;;;;;;;;;10218363;28;20024;-89
2023/05/18 06:08:26;;;;;;;17.63;7.03;;;;;;;;;;10229811;28;20539;-89
2023/05/18 06:13:27;;;;;;;14.00;6.67;;;;;;;;;;10230518;28;20043;-88
2023/05/18 06:18:28;;;;;;;19.13;6.83;;;;;;;;;;10228753;28;20031;-88
2023/05/18 06:23:29;;;;;;;17.67;6.70;;;;;;;;;;10246550;28;20809;-87
2023/05/18 06:28:30;;;;;;;16.73;6.30;;;;;;;;;;10241249;28;20043;-86
2023/05/18 06:33:31;;;;;;;13.47;5.93;;;;;;;;;;10228145;28;20047;-86
2023/05/18 06:38:32;;;;;;;17.50;4.67;;;;;;;;;;10227701;28;20031;-87
2023/05/18 06:43:33;;;;;;;14.10;5.87;;;;;;;;;;10226823;28;20043;-86
2023/05/18 06:48:34;;;;;;;16.00;6.23;;;;;;;;;;10239536;28;20162;-86
2023/05/18 06:53:35;;;;;;;16.37;5.20;;;;;;;;;;10244089;28;20380;-88
2023/05/18 06:58:38;;;;;;;15.13;4.90;;;;;;;;;;10226405;28;20031;-87
2023/05/18 07:03:39;;;;;;;12.70;5.15;;;;;;;;;;10226623;28;20537;-87
2023/05/18 07:08:40;;;;;;;11.50;4.63;;;;;;;;;;10213358;28;20048;-87
2023/05/18 07:13:41;;;;;;;14.87;4.30;;;;;;;;;;10215790;28;20435;-88
2023/05/18 07:18:42;;;;;;;15.40;5.13;;;;;;;;;;10235641;28;20066;-89
2023/05/18 07:23:43;;;;;;;13.37;4.67;;;;;;;;;;10225178;28;20031;-88
2023/05/18 07:28:45;;;;;;;10.27;3.58;;;;;;;;;;10225430;28;20054;-88
2023/05/18 07:33:46;;;;;;;9.37;3.83;;;;;;;;;;10225483;28;20130;-88
2023/05/18 07:38:53;;;;;;;9.10;2.97;;;;;;;;;;10224858;28;20035;-88
2023/05/18 07:43:54;;;;;;;10.07;3.40;;;;;;;;;;10225296;28;20037;-89
2023/05/18 07:48:55;;;;;;;12.10;3.08;;;;;;;;;;10225084;28;20483;-89
2023/05/18 07:53:56;;;;;;;9.03;2.97;;;;;;;;;;10238112;28;20035;-88
2023/05/18 07:59:01;;;;;;;12.63;2.78;;;;;;;;;;10241978;28;20372;-89
2023/05/18 08:04:03;;;;;;;9.00;2.77;;;;;;;;;;10225056;28;20082;-89
2023/05/18 08:09:05;;;;;;;9.10;2.70;;;;;;;;;;10223540;28;20046;-88
2023/05/18 08:14:06;;;;;;;7.43;2.10;;;;;;;;;;10224680;28;20530;-88
2023/05/18 08:19:07;;;;;;;5.32;1.80;;;;;;;;;;10240941;28;20027;-87
2023/05/18 08:24:10;;;;;;;4.50;2.15;;;;;;;;;;10241063;28;20625;-89
2023/05/18 08:29:11;;;;;;;7.03;2.50;;;;;;;;;;10223770;28;20035;-87
2023/05/18 08:34:12;;;;;;;8.60;2.58;;;;;;;;;;10223606;28;20027;-88
2023/05/18 08:39:14;;;;;;;5.88;2.10;;;;;;;;;;10230438;28;20777;-88
2023/05/18 08:44:20;;;;;;;10.40;2.53;;;;;;;;;;10231593;28;20039;-87
2023/05/18 08:49:23;;;;;;;10.43;2.33;;;;;;;;;;10248730;28;20077;-87
2023/05/18 08:54:27;;;;;;;4.35;1.80;;;;;;;;;;10244623;28;20035;-86
2023/05/18 08:59:30;;;;;;;6.10;2.00;;;;;;;;;;10231455;28;20031;-86
2023/05/18 09:04:34;;;;;;;13.77;2.10;;;;;;;;;;10230760;28;20070;-89
2023/05/18 09:09:35;;;;;;;5.80;2.05;;;;;;;;;;10230418;28;20043;-87
2023/05/18 09:14:36;;;;;;;6.72;2.15;;;;;;;;;;10230911;28;20027;-88
2023/05/18 09:19:37;;;;;;;7.50;2.50;;;;;;;;;;10230304;28;20420;-88
2023/05/18 09:24:38;;;;;;;6.18;1.85;;;;;;;;;;10230400;28;20027;-87
2023/05/18 09:29:56;;;;;;;9.25;2.28;;;;;;;;;;10247762;28;20055;-86
2023/05/18 09:35:03;;;;;;;4.60;2.20;;;;;;;;;;10219435;28;20185;-86
2023/05/18 09:40:07;;;;;;;7.47;2.40;;;;;;;;;;10248025;28;20042;-86
2023/05/18 09:45:22;;;;;;;7.65;2.38;;;;;;;;;;10229336;28;20368;-87
2023/05/18 09:50:24;;;;;;;9.48;2.08;;;;;;;;;;10228913;28;20090;-86
2023/05/18 09:55:25;;;;;;;7.07;2.00;;;;;;;;;;10228616;28;20064;-86
2023/05/18 10:00:26;;;;;;;7.80;1.92;;;;;;;;;;10229331;28;20618;-86
2023/05/18 10:05:32;;;;;;;8.90;2.05;;;;;;;;;;10228257;28;20055;-85
2023/05/18 10:10:37;;;;;;;8.27;2.17;;;;;;;;;;10228325;28;20133;-86
2023/05/18 10:15:45;;;;;;;8.40;2.20;;;;;;;;;;10245531;28;20028;-87
2023/05/18 10:20:47;;;;;;;7.13;2.15;;;;;;;;;;10242219;28;20121;-87
2023/05/18 10:25:49;;;;;;;5.97;2.10;;;;;;;;;;10245501;28;20031;-88
2023/05/18 10:30:51;;;;;;;8.27;2.13;;;;;;;;;;10228582;28;20047;-87
2023/05/18 10:35:52;;;;;;;10.30;2.70;;;;;;;;;;10246056;28;20105;-87
2023/05/18 10:40:54;;;;;;;8.73;2.50;;;;;;;;;;10244661;28;20027;-85
2023/05/18 10:45:59;;;;;;;10.07;3.15;;;;;;;;;;10227979;28;20037;-85
2023/05/18 10:51:04;;;;;;;7.53;2.60;;;;;;;;;;10227288;28;20039;-87
2023/05/18 10:56:06;;;;;;;5.43;2.30;;;;;;;;;;10226863;28;20109;-86
2023/05/18 11:01:09;;;;;;;5.80;2.42;;;;;;;;;;10225670;28;20066;-87
2023/05/18 11:06:11;;;;;;;8.20;2.15;;;;;;;;;;10226780;28;20125;-86
2023/05/18 11:11:12;;;;;;;4.93;2.40;;;;;;;;;;10226725;28;20046;-87
2023/05/18 11:16:14;;;;;;;8.18;2.47;;;;;;;;;;10225786;28;20027;-89
2023/05/18 11:21:34;;;;;;;4.20;2.22;;;;;;;;;;10244008;28;20122;-87
2023/05/18 11:26:39;;;;;;;5.00;1.70;;;;;;;;;;10226629;28;20042;-87
2023/05/18 11:31:44;;;;;;;3.63;2.03;;;;;;;;;;10236442;28;20403;-86
2023/05/18 11:36:46;;;;;;;4.77;1.80;;;;;;;;;;10238206;28;20032;-86
2023/05/18 11:41:58;;;;;;;4.85;1.90;;;;;;;;;;10238118;28;20278;-88
2023/05/18 11:46:59;;;;;;;6.32;2.25;;;;;;;;;;10226736;28;20463;-86
2023/05/18 11:52:12;;;;;;;5.25;1.77;;;;;;;;;;10241906;28;20543;-86
2023/05/18 11:57:14;;;;;;;7.82;2.30;;;;;;;;;;10224782;28;20518;-86
2023/05/18 12:02:23;;;;;;;8.13;2.22;;;;;;;;;;10225238;28;20048;-88
2023/05/18 12:07:24;;;;;;;4.88;1.80;;;;;;;;;;10242382;28;20502;-86
2023/05/18 12:12:27;;;;;;;7.43;2.78;;;;;;;;;;10237127;28;20055;-87
2023/05/18 12:17:38;;;;;;;6.85;2.63;;;;;;;;;;10224957;28;20031;-88
2023/05/18 12:22:39;;;;;;;8.10;3.22;;;;;;;;;;10212320;28;20114;-88
2023/05/18 12:27:42;;;;;;;7.20;3.05;;;;;;;;;;10254435;28;20114;-88
2023/05/18 12:32:47;;;;;;;7.28;2.63;;;;;;;;;;10222743;29;20043;-88
2023/05/18 12:37:48;;;;;;;5.50;2.20;;;;;;;;;;10223662;28;20623;-87
2023/05/18 12:42:53;;;;;;;6.55;2.10;;;;;;;;;;10241214;28;20031;-87
2023/05/18 12:47:54;;;;;;;6.75;2.20;;;;;;;;;;10235272;28;20500;-86
2023/05/18 12:52:55;;;;;;;5.55;1.98;;;;;;;;;;10232830;28;20488;-87
2023/05/18 12:58:00;;;;;;;4.45;2.40;;;;;;;;;;10238836;28;20118;-87
2023/05/18 13:03:07;;;;;;;11.57;3.33;;;;;;;;;;10219689;28;20059;-87
2023/05/18 13:08:08;;;;;;;8.70;3.05;;;;;;;;;;10232164;28;20486;-86
2023/05/18 13:13:09;;;;;;;8.18;2.85;;;;;;;;;;10236975;28;20801;-86
2023/05/18 13:18:11;;;;;;;6.45;2.80;;;;;;;;;;10218929;28;20126;-87
2023/05/18 13:23:15;;;;;;;5.97;2.53;;;;;;;;;;10242194;28;20123;-86
2023/05/18 13:28:19;;;;;;;8.18;3.03;;;;;;;;;;10240089;28;20399;-86
2023/05/18 13:33:22;;;;;;;10.13;3.33;;;;;;;;;;10226871;28;20077;-85
2023/05/18 13:38:23;;;;;;;10.02;3.90;;;;;;;;;;10244518;28;20035;-86
2023/05/18 13:43:24;;;;;;;9.15;4.22;;;;;;;;;;10221862;28;20039;-86
2023/05/18 13:48:27;;;;;;;13.75;5.53;;;;;;;;;;10234457;28;20094;-89
2023/05/18 13:53:28;;;;;;;14.93;5.43;;;;;;;;;;10228496;28;20039;-86
2023/05/18 13:58:32;;;;;;;12.27;3.90;;;;;;;;;;10246083;28;20119;-86
2023/05/18 14:03:35;;;;;;;13.18;4.28;;;;;;;;;;10227405;28;20546;-89
2023/05/18 14:08:36;;;;;;;4.28;1.92;;;;;;;;;;10244419;28;20507;-86
2023/05/18 14:13:37;;;;;;;3.88;1.50;;;;;;;;;;10238434;28;20106;-86
2023/05/18 14:18:38;;;;;;;3.83;1.58;;;;;;;;;;10245979;28;20026;-86
2023/05/18 14:23:38;;;;;;;3.88;1.77;;;;;;;;;;10244186;28;20085;-86
2023/05/18 14:28:40;;;;;;;3.65;1.60;;;;;;;;;;10243474;28;20681;-86
2023/05/18 14:33:41;;;;;;;5.68;2.20;;;;;;;;;;10225055;28;20153;-89
2023/05/18 14:38:42;;;;;;;5.35;2.15;;;;;;;;;;10244414;28;20523;-88
2023/05/18 14:43:45;;;;;;;3.88;1.90;;;;;;;;;;10243129;28;20074;-88
2023/05/18 14:48:46;;;;;;;7.50;3.22;;;;;;;;;;10227135;28;20098;-84
2023/05/18 14:53:47;;;;;;;6.60;2.10;;;;;;;;;;10233261;28;20035;-84
2023/05/18 14:58:48;;;;;;;3.90;2.30;;;;;;;;;;10225226;28;20043;-84
2023/05/18 15:03:49;;;;;;;4.60;2.15;;;;;;;;;;10233124;28;20046;-84
2023/05/18 15:08:50;;;;;;;46.80;19.00;;;;;;;;;;10244675;28;20483;-85
2023/05/18 15:13:51;;;;;;;10.25;4.53;;;;;;;;;;10240307;28;20035;-84
2023/05/18 15:18:52;;;;;;;11.32;5.97;;;;;;;;;;10242354;28;20110;-86
2023/05/18 15:23:53;;;;;;;14.32;5.35;;;;;;;;;;10223675;28;20039;-84
2023/05/18 15:28:54;;;;;;;7.88;4.18;;;;;;;;;;10243198;28;20554;-85
2023/05/18 15:33:55;;;;;;;8.45;3.78;;;;;;;;;;10239420;28;20058;-86
2023/05/18 15:38:56;;;;;;;8.10;4.05;;;;;;;;;;10242478;28;20041;-83
2023/05/18 15:43:59;;;;;;;13.30;5.50;;;;;;;;;;10234010;28;20038;-84
2023/05/18 15:49:01;;;;;;;7.78;3.78;;;;;;;;;;10239782;28;20031;-85
2023/05/18 15:54:02;;;;;;;9.77;4.60;;;;;;;;;;10224299;28;20050;-85
2023/05/18 15:59:03;;;;;;;8.60;3.65;;;;;;;;;;10240732;28;20050;-86
2023/05/18 16:04:04;;;;;;;7.95;2.85;;;;;;;;;;10241959;28;20047;-84
2023/05/18 16:09:05;;;;;;;7.15;3.03;;;;;;;;;;10226992;28;20090;-85
2023/05/18 16:14:06;;;;;;;36.33;13.82;;;;;;;;;;10222518;28;20598;-84
2023/05/18 16:19:07;;;;;;;19.10;7.80;;;;;;;;;;10241524;28;20027;-85
2023/05/18 16:24:08;;;;;;;11.32;4.18;;;;;;;;;;10215396;28;20487;-85
2023/05/18 16:29:09;;;;;;;4.65;2.65;;;;;;;;;;10239479;28;20050;-85
2023/05/18 16:34:10;;;;;;;7.90;2.75;;;;;;;;;;10222361;28;20475;-83
2023/05/18 16:39:11;;;;;;;5.10;2.40;;;;;;;;;;10240493;28;20041;-82
2023/05/18 16:44:12;;;;;;;7.10;2.75;;;;;;;;;;10237578;28;20062;-88
2023/05/18 16:49:13;;;;;;;4.95;2.22;;;;;;;;;;10207074;28;20488;-86
2023/05/18 16:54:14;;;;;;;4.25;2.10;;;;;;;;;;10223811;28;20027;-85
2023/05/18 16:59:15;;;;;;;9.02;2.92;;;;;;;;;;10244253;28;20042;-85
2023/05/18 17:04:16;;;;;;;7.18;4.18;;;;;;;;;;10248305;28;20086;-85
2023/05/18 17:09:19;;;;;;;11.38;6.55;;;;;;;;;;10224654;28;20036;-84
2023/05/18 17:14:20;;;;;;;13.40;6.40;;;;;;;;;;10242816;28;20035;-84
2023/05/18 17:19:21;;;;;;;12.73;5.15;;;;;;;;;;10239983;28;20035;-84
2023/05/18 17:24:22;;;;;;;11.38;4.82;;;;;;;;;;10246384;28;20039;-84
2023/05/18 17:29:23;;;;;;;10.15;5.32;;;;;;;;;;10223740;28;20042;-84
2023/05/18 17:34:29;;;;;;;11.30;4.88;;;;;;;;;;10244583;28;20126;-85
2023/05/18 17:39:30;;;;;;;8.45;3.72;;;;;;;;;;10242225;28;20035;-85
2023/05/18 17:44:31;;;;;;;7.78;3.85;;;;;;;;;;10245655;28;20677;-84
2023/05/18 17:49:38;;;;;;;6.80;2.70;;;;;;;;;;10219243;28;20134;-85
2023/05/18 17:54:41;;;;;;;4.45;2.85;;;;;;;;;;10246435;28;20172;-85
2023/05/18 17:59:44;;;;;;;6.85;2.95;;;;;;;;;;10228014;28;20047;-86
2023/05/18 18:04:45;;;;;;;7.07;2.65;;;;;;;;;;10236977;28;20051;-85
2023/05/18 18:09:46;;;;;;;5.13;2.40;;;;;;;;;;10245459;28;20479;-86
2023/05/18 18:14:49;;;;;;;7.13;4.10;;;;;;;;;;10228478;28;20042;-85
2023/05/18 18:19:52;;;;;;;6.90;3.17;;;;;;;;;;10246200;28;20031;-84
2023/05/18 18:24:53;;;;;;;7.00;3.83;;;;;;;;;;10245820;28;20046;-86
2023/05/18 18:29:55;;;;;;;10.95;3.97;;;;;;;;;;10225976;28;20039;-85
2023/05/18 18:34:56;;;;;;;7.90;3.78;;;;;;;;;;10245116;28;20106;-86
2023/05/18 18:39:57;;;;;;;9.68;4.60;;;;;;;;;;10244258;28;20386;-84
2023/05/18 18:44:58;;;;;;;10.88;4.57;;;;;;;;;;10243269;28;20082;-83
2023/05/18 18:49:59;;;;;;;9.32;4.40;;;;;;;;;;10243906;28;20050;-85
2023/05/18 18:55:00;;;;;;;8.35;4.82;;;;;;;;;;10227134;28;20130;-86
2023/05/18 19:00:01;;;;;;;9.13;4.70;;;;;;;;;;10224822;28;20035;-84
2023/05/18 19:05:02;;;;;;;10.38;5.13;;;;;;;;;;10243586;28;20059;-84
2023/05/18 19:10:06;;;;;;;8.25;4.43;;;;;;;;;;10244274;28;20135;-85
2023/05/18 19:15:07;;;;;;;12.73;6.73;;;;;;;;;;10237074;28;20067;-86
2023/05/18 19:20:13;;;;;;;12.37;6.00;;;;;;;;;;10229753;28;20046;-85
2023/05/18 19:25:14;;;;;;;16.27;6.95;;;;;;;;;;10243068;28;20031;-85
2023/05/18 19:30:19;;;;;;;15.50;8.05;;;;;;;;;;10241423;28;20543;-84
2023/05/18 19:35:22;;;;;;;16.93;7.80;;;;;;;;;;10233811;28;20035;-83
2023/05/18 19:40:26;;;;;;;16.25;7.95;;;;;;;;;;10225460;28;20774;-84
2023/05/18 19:45:26;;;;;;;19.13;9.53;;;;;;;;;;10230818;28;20027;-85
2023/05/18 19:50:30;;;;;;;22.85;9.43;;;;;;;;;;10224752;28;20050;-85
2023/05/18 19:55:31;;;;;;;22.00;9.80;;;;;;;;;;10242028;28;20501;-84
2023/05/18 20:00:33;;;;;;;18.53;8.83;;;;;;;;;;10223695;28;20039;-85
2023/05/18 20:05:35;;;;;;;22.55;10.40;;;;;;;;;;10242138;28;20125;-85
2023/05/18 20:10:38;;;;;;;28.55;10.20;;;;;;;;;;10224259;28;20069;-85
2023/05/18 20:15:39;;;;;;;17.60;9.18;;;;;;;;;;10237203;28;20066;-85
2023/05/18 20:20:40;;;;;;;17.45;8.65;;;;;;;;;;10241862;28;20117;-85
2023/05/18 20:25:43;;;;;;;15.52;8.13;;;;;;;;;;10230208;28;20097;-85
2023/05/18 20:30:45;;;;;;;17.90;8.73;;;;;;;;;;10242286;28;20477;-85
2023/05/18 20:35:47;;;;;;;13.50;7.30;;;;;;;;;;10249968;28;20035;-85
2023/05/18 20:40:52;;;;;;;13.63;7.25;;;;;;;;;;10249520;28;20035;-84
2023/05/18 20:45:54;;;;;;;10.98;5.65;;;;;;;;;;10248247;28;20550;-84
2023/05/18 20:50:55;;;;;;;12.05;5.53;;;;;;;;;;10234114;28;20431;-85
2023/05/18 20:55:59;;;;;;;11.53;4.63;;;;;;;;;;10247261;28;20035;-84
2023/05/18 21:01:05;;;;;;;10.20;4.30;;;;;;;;;;10252052;28;20430;-84
2023/05/18 21:06:06;;;;;;;;;;;;;;;;;;10256918;28;20469;-83
2023/05/18 21:11:07;;;;;;;7.45;3.67;;;;;;;;;;10248600;28;19922;-83
2023/05/18 21:16:08;;;;;;;6.83;3.73;;;;;;;;;;10229775;28;20028;-84
2023/05/18 21:21:09;;;;;;;7.60;3.78;;;;;;;;;;10248033;28;20043;-84
2023/05/18 21:26:15;;;;;;;9.27;3.43;;;;;;;;;;10247381;28;20043;-84
2023/05/18 21:31:18;;;;;;;12.07;4.25;;;;;;;;;;10224228;28;20043;-83
2023/05/18 21:36:33;;;;;;;10.00;3.97;;;;;;;;;;10243811;28;20046;-83
2023/05/18 21:41:41;;;;;;;9.37;4.90;;;;;;;;;;10246716;28;20015;-84
2023/05/18 21:46:42;;;;;;;8.43;4.20;;;;;;;;;;10246232;28;20118;-83
2023/05/18 21:51:43;;;;;;;9.60;4.23;;;;;;;;;;10246139;28;20407;-84
2023/05/18 21:56:44;;;;;;;11.40;4.70;;;;;;;;;;10228845;28;20031;-84
2023/05/18 22:01:45;;;;;;;7.80;4.27;;;;;;;;;;10245512;28;20037;-83
2023/05/18 22:06:46;;;;;;;8.67;4.27;;;;;;;;;;10246355;28;20055;-83
2023/05/18 22:11:47;;;;;;;9.70;4.23;;;;;;;;;;10228304;28;20106;-83
2023/05/18 22:16:47;;;;;;;8.57;4.33;;;;;;;;;;10239728;28;20394;-83
2023/05/18 22:21:48;;;;;;;10.27;4.23;;;;;;;;;;10245461;28;20043;-83
2023/05/18 22:26:49;;;;;;;10.03;4.10;;;;;;;;;;10245307;28;20034;-83
2023/05/18 22:31:50;;;;;;;8.53;4.13;;;;;;;;;;10242733;28;20035;-84
2023/05/18 22:36:51;;;;;;;10.80;4.77;;;;;;;;;;10245030;28;20130;-84
2023/05/18 22:41:52;;;;;;;14.50;5.47;;;;;;;;;;10257142;28;20019;-82
2023/05/18 22:46:53;;;;;;;11.10;5.57;;;;;;;;;;10244551;28;20027;-85
2023/05/18 22:51:55;;;;;;;14.57;5.70;;;;;;;;;;10244285;28;20568;-84
2023/05/18 22:56:58;;;;;;;12.03;5.33;;;;;;;;;;10243373;28;20082;-83
2023/05/18 23:01:59;;;;;;;12.50;6.33;;;;;;;;;;10225690;28;20711;-84
2023/05/18 23:07:02;;;;;;;12.13;5.00;;;;;;;;;;10244011;28;20062;-84
2023/05/18 23:12:06;;;;;;;11.53;4.97;;;;;;;;;;10226150;28;20043;-84
2023/05/18 23:17:11;;;;;;;8.87;4.67;;;;;;;;;;10236598;28;20038;-83
2023/05/18 23:22:12;;;;;;;10.40;4.60;;;;;;;;;;10233634;28;20047;-83
2023/05/18 23:27:13;;;;;;;9.33;5.17;;;;;;;;;;10242756;28;20054;-83
2023/05/18 23:32:14;;;;;;;12.83;5.97;;;;;;;;;;10241776;28;20037;-84
2023/05/18 23:37:17;;;;;;;14.03;6.07;;;;;;;;;;10242917;28;20542;-84
2023/05/18 23:42:23;;;;;;;12.03;5.30;;;;;;;;;;10241974;28;20030;-84
2023/05/18 23:47:24;;;;;;;14.37;6.30;;;;;;;;;;10233175;28;20097;-84
2023/05/18 23:52:26;;;;;;;12.77;6.10;;;;;;;;;;10241898;28;20039;-84
2023/05/18 23:57:27;;;;;;;14.67;6.37;;;;;;;;;;10224787;28;20031;-84
